createdAt,value
2018-02-14T00:01:02.106Z,8.00
2018-02-14T00:03:29.686Z,8.20
2018-02-14T00:05:57.147Z,8.03
2018-02-14T00:08:24.630Z,7.40
2018-02-14T00:10:52.152Z,8.10
2018-02-14T00:13:19.613Z,8.27
2018-02-14T00:15:47.148Z,8.00
2018-02-14T00:18:14.605Z,7.63
2018-02-14T00:20:42.872Z,7.90
2018-02-14T00:23:10.358Z,7.20
2018-02-14T00:25:38.291Z,7.40
2018-02-14T00:28:05.900Z,7.20
2018-02-14T00:30:33.358Z,7.90
2018-02-14T00:33:00.818Z,7.77
2018-02-14T00:35:28.284Z,8.10
2018-02-14T00:37:55.754Z,8.30
2018-02-14T00:40:24.014Z,7.70
2018-02-14T00:42:51.474Z,8.40
2018-02-14T00:45:18.909Z,11.10
2018-02-14T00:47:46.403Z,8.67
2018-02-14T00:50:14.611Z,8.63
2018-02-14T00:52:42.094Z,8.57
2018-02-14T00:55:09.574Z,8.57
2018-02-14T00:57:37.125Z,9.00
2018-02-14T01:00:04.585Z,8.53
2018-02-14T01:02:32.062Z,8.50
2018-02-14T01:04:59.495Z,7.70
2018-02-14T01:07:26.975Z,8.70
2018-02-14T01:09:54.418Z,9.17
2018-02-14T01:12:21.919Z,8.70
2018-02-14T01:14:49.378Z,8.10
2018-02-14T01:17:17.610Z,9.23
2018-02-14T01:19:45.052Z,9.30
2018-02-14T01:22:12.526Z,8.77
2018-02-14T01:24:39.997Z,9.03
2018-02-14T01:27:07.457Z,9.70
2018-02-14T01:29:34.944Z,11.30
2018-02-14T01:32:03.172Z,9.50
2018-02-14T01:34:30.650Z,9.50
2018-02-14T01:36:58.105Z,9.10
2018-02-14T01:39:25.567Z,9.50
2018-02-14T01:41:53.027Z,8.73
2018-02-14T01:44:20.486Z,9.00
2018-02-14T01:46:47.945Z,8.53
2018-02-14T01:49:15.420Z,8.87
2018-02-14T01:51:43.632Z,8.87
2018-02-14T01:54:11.230Z,7.67
2018-02-14T01:56:38.693Z,8.80
2018-02-14T01:59:06.272Z,8.20
2018-02-14T02:01:34.552Z,9.17
2018-02-14T02:04:01.983Z,9.23
2018-02-14T02:06:29.444Z,8.10
2018-02-14T02:08:56.900Z,8.50
2018-02-14T02:11:24.339Z,8.07
2018-02-14T02:13:51.819Z,8.30
2018-02-14T02:16:19.305Z,7.90
2018-02-14T02:18:47.500Z,8.53
2018-02-14T02:21:14.988Z,8.47
2018-02-14T02:23:42.453Z,8.23
2018-02-14T02:26:09.927Z,9.80
2018-02-14T02:28:37.382Z,8.23
2018-02-14T02:31:04.826Z,8.70
2018-02-14T02:33:32.287Z,9.50
2018-02-14T02:35:59.732Z,9.50
2018-02-14T02:38:27.207Z,9.23
2018-02-14T02:40:54.662Z,9.90
2018-02-14T02:43:22.145Z,9.27
2018-02-14T02:45:49.604Z,9.40
2018-02-14T02:48:17.046Z,9.00
2018-02-14T02:50:44.516Z,9.27
2018-02-14T02:53:11.972Z,9.57
2018-02-14T02:55:39.554Z,10.17
2018-02-14T02:58:07.806Z,9.90
2018-02-14T03:00:35.264Z,9.77
2018-02-14T03:03:02.727Z,9.80
2018-02-14T03:05:30.999Z,10.10
2018-02-14T03:07:58.564Z,9.80
2018-02-14T03:10:26.011Z,9.53
2018-02-14T03:12:53.462Z,9.97
2018-02-14T03:15:20.934Z,10.07
2018-02-14T03:17:48.382Z,9.80
2018-02-14T03:20:15.863Z,10.60
2018-02-14T03:22:44.075Z,11.00
2018-02-14T03:25:11.559Z,9.73
2018-02-14T03:27:39.031Z,9.57
2018-02-14T03:30:06.494Z,9.90
2018-02-14T03:32:33.974Z,10.50
2018-02-14T03:35:02.206Z,10.80
2018-02-14T03:37:29.689Z,10.40
2018-02-14T03:39:57.151Z,9.83
2018-02-14T03:42:24.609Z,9.37
2018-02-14T03:44:52.064Z,10.53
2018-02-14T03:47:20.331Z,10.63
2018-02-14T03:49:47.794Z,10.90
2018-02-14T03:52:15.270Z,11.70
2018-02-14T03:54:43.506Z,12.00
2018-02-14T03:57:10.996Z,11.27
2018-02-14T03:59:39.358Z,11.97
2018-02-14T04:02:06.835Z,11.57
2018-02-14T04:04:35.070Z,11.40
2018-02-14T04:07:02.538Z,11.03
2018-02-14T04:09:29.985Z,11.30
2018-02-14T04:11:57.470Z,10.50
2018-02-14T04:14:24.970Z,10.60
2018-02-14T04:16:53.180Z,11.20
2018-02-14T04:19:20.622Z,10.70
2018-02-14T04:21:48.090Z,11.23
2018-02-14T04:24:15.538Z,11.43
2018-02-14T04:26:42.998Z,10.50
2018-02-14T04:29:10.476Z,10.47
2018-02-14T04:31:37.962Z,11.90
2018-02-14T04:34:05.409Z,10.13
2018-02-14T04:36:32.878Z,11.87
2018-02-14T04:39:00.323Z,11.77
2018-02-14T04:41:27.804Z,10.90
2018-02-14T04:43:55.243Z,10.20
2018-02-14T04:46:22.725Z,10.87
2018-02-14T04:48:50.178Z,10.50
2018-02-14T04:51:17.622Z,11.40
2018-02-14T04:53:45.094Z,10.90
2018-02-14T04:56:12.545Z,11.10
2018-02-14T04:58:40.007Z,10.70
2018-02-14T05:01:07.478Z,11.47
2018-02-14T05:03:35.739Z,10.90
2018-02-14T05:06:03.226Z,11.47
2018-02-14T05:08:30.719Z,10.90
2018-02-14T05:10:58.322Z,10.33
2018-02-14T05:13:25.775Z,11.43
2018-02-14T05:15:53.238Z,10.80
2018-02-14T05:18:20.743Z,11.07
2018-02-14T05:20:48.210Z,10.93
2018-02-14T05:23:15.703Z,12.33
2018-02-14T05:25:43.160Z,10.63
2018-02-14T05:28:10.623Z,10.50
2018-02-14T05:30:38.087Z,10.80
2018-02-14T05:33:05.542Z,10.30
2018-02-14T05:35:33.007Z,11.43
2018-02-14T05:38:01.226Z,11.17
2018-02-14T05:40:28.698Z,11.07
2018-02-14T05:42:56.151Z,11.80
2018-02-14T05:45:23.647Z,12.03
2018-02-14T05:47:51.083Z,11.80
2018-02-14T05:50:18.555Z,12.63
2018-02-14T05:52:46.014Z,12.90
2018-02-14T05:55:13.527Z,12.60
2018-02-14T05:57:40.990Z,12.07
2018-02-14T06:00:08.454Z,13.60
2018-02-14T06:02:35.955Z,13.73
2018-02-14T06:05:03.418Z,13.07
2018-02-14T06:07:30.870Z,13.10
2018-02-14T06:09:58.335Z,11.03
2018-02-14T06:12:25.798Z,11.23
2018-02-14T06:14:54.043Z,11.60
2018-02-14T06:17:21.507Z,12.40
2018-02-14T06:19:49.585Z,11.83
2018-02-14T06:22:17.071Z,11.07
2018-02-14T06:24:44.548Z,12.57
2018-02-14T06:27:11.999Z,12.00
2018-02-14T06:29:39.472Z,11.97
2018-02-14T06:32:07.699Z,10.87
2018-02-14T06:34:35.170Z,12.13
2018-02-14T06:37:02.668Z,12.17
2018-02-14T06:39:30.902Z,12.97
2018-02-14T06:41:58.491Z,13.33
2018-02-14T06:44:25.967Z,11.53
2018-02-14T06:46:54.311Z,12.67
2018-02-14T06:49:21.774Z,13.27
2018-02-14T06:51:49.244Z,12.57
2018-02-14T06:54:16.700Z,13.60
2018-02-14T06:56:44.294Z,13.77
2018-02-14T06:59:11.787Z,12.90
2018-02-14T07:01:39.262Z,12.63
2018-02-14T07:04:06.718Z,12.50
2018-02-14T07:06:34.170Z,12.97
2018-02-14T07:09:01.634Z,12.97
2018-02-14T07:11:29.132Z,13.40
2018-02-14T07:13:57.371Z,12.27
2018-02-14T07:16:24.851Z,12.57
2018-02-14T07:18:52.332Z,13.73
2018-02-14T07:21:19.831Z,14.20
2018-02-14T07:23:47.286Z,13.97
2018-02-14T07:26:14.754Z,13.10
2018-02-14T07:28:42.239Z,13.60
2018-02-14T07:31:09.681Z,12.63
2018-02-14T07:33:37.174Z,12.30
2018-02-14T07:36:05.415Z,13.30
2018-02-14T07:38:32.891Z,13.93
2018-02-14T07:41:00.357Z,13.87
2018-02-14T07:43:28.586Z,14.00
2018-02-14T07:45:56.055Z,13.63
2018-02-14T07:48:23.519Z,13.40
2018-02-14T07:50:51.058Z,14.30
2018-02-14T07:53:18.562Z,12.53
2018-02-14T07:55:46.103Z,13.80
2018-02-14T07:58:13.579Z,11.80
2018-02-14T08:00:41.064Z,12.20
2018-02-14T08:03:08.517Z,13.80
2018-02-14T08:05:36.821Z,12.57
2018-02-14T08:08:04.299Z,12.73
2018-02-14T08:10:31.755Z,12.50
2018-02-14T08:12:59.247Z,12.67
2018-02-14T08:15:26.726Z,14.47
2018-02-14T08:17:55.039Z,12.70
2018-02-14T08:20:22.514Z,13.30
2018-02-14T08:22:49.964Z,14.10
2018-02-14T08:25:17.432Z,13.70
2018-02-14T08:27:44.915Z,15.07
2018-02-14T08:30:12.384Z,13.33
2018-02-14T08:32:40.599Z,13.40
2018-02-14T08:35:08.062Z,14.57
2018-02-14T08:37:35.518Z,11.90
2018-02-14T08:40:02.959Z,12.13
2018-02-14T08:42:30.479Z,10.37
2018-02-14T08:44:58.759Z,11.53
2018-02-14T08:47:26.226Z,11.50
2018-02-14T08:49:53.697Z,12.17
2018-02-14T08:52:21.961Z,11.43
2018-02-14T08:54:49.446Z,12.13
2018-02-14T08:57:16.972Z,11.53
2018-02-14T08:59:44.428Z,11.43
2018-02-14T09:02:11.897Z,12.43
2018-02-14T09:04:40.154Z,11.40
2018-02-14T09:07:07.643Z,11.63
2018-02-14T09:09:36.007Z,9.57
2018-02-14T09:12:03.478Z,11.27
2018-02-14T09:14:31.726Z,10.57
2018-02-14T09:16:59.216Z,9.60
2018-02-14T09:19:27.474Z,7.77
2018-02-14T09:21:54.939Z,8.87
2018-02-14T09:24:22.491Z,6.70
2018-02-14T09:26:49.945Z,6.60
2018-02-14T09:29:17.410Z,6.63
2018-02-14T09:31:45.105Z,6.80
2018-02-14T09:34:12.634Z,6.03
2018-02-14T09:36:40.090Z,6.40
2018-02-14T09:39:07.543Z,6.60
2018-02-14T09:41:35.187Z,7.93
2018-02-14T09:44:02.667Z,6.40
2018-02-14T09:46:30.124Z,7.10
2018-02-14T09:48:57.686Z,6.30
2018-02-14T09:51:25.145Z,6.67
2018-02-14T09:53:52.771Z,5.43
2018-02-14T09:56:20.222Z,9.33
2018-02-14T09:58:47.735Z,6.20
2018-02-14T10:01:16.182Z,6.30
2018-02-14T10:03:43.650Z,7.07
2018-02-14T10:06:11.291Z,7.23
2018-02-14T10:08:38.750Z,7.13
2018-02-14T10:11:06.398Z,5.30
2018-02-14T10:13:33.865Z,5.53
2018-02-14T10:16:01.343Z,5.33
2018-02-14T10:18:28.820Z,4.40
2018-02-14T10:20:56.262Z,4.83
2018-02-14T10:23:23.734Z,5.20
2018-02-14T10:25:51.218Z,5.20
2018-02-14T10:28:19.838Z,5.50
2018-02-14T10:30:47.342Z,6.03
2018-02-14T10:33:14.798Z,5.73
2018-02-14T10:35:42.263Z,4.40
2018-02-14T10:38:10.503Z,5.27
2018-02-14T10:40:37.974Z,5.67
2018-02-14T10:43:05.434Z,5.80
2018-02-14T10:45:32.906Z,5.93
2018-02-14T10:48:00.346Z,5.40
2018-02-14T10:50:27.803Z,5.17
2018-02-14T10:52:55.270Z,5.97
2018-02-14T10:55:22.759Z,5.40
2018-02-14T10:57:50.990Z,4.90
2018-02-14T11:00:24.192Z,5.63
2018-02-14T11:02:57.383Z,5.07
2018-02-14T11:05:30.603Z,5.30
2018-02-14T11:07:58.825Z,5.33
2018-02-14T11:10:26.294Z,5.40
2018-02-14T11:12:53.772Z,5.70
2018-02-14T11:15:21.220Z,5.70
2018-02-14T11:17:48.658Z,5.00
2018-02-14T11:20:16.134Z,6.43
2018-02-14T11:22:43.599Z,5.20
2018-02-14T11:25:11.078Z,5.50
2018-02-14T11:27:38.597Z,5.97
2018-02-14T11:30:06.062Z,5.60
2018-02-14T11:32:33.644Z,6.20
2018-02-14T11:35:01.371Z,7.20
2018-02-14T11:37:28.875Z,5.97
2018-02-14T11:39:56.339Z,5.53
2018-02-14T11:42:23.857Z,6.30
2018-02-14T11:44:51.322Z,5.57
2018-02-14T11:47:18.892Z,6.17
2018-02-14T11:49:46.433Z,6.90
2018-02-14T11:52:13.895Z,6.00
2018-02-14T11:54:41.353Z,6.77
2018-02-14T11:57:08.802Z,6.70
2018-02-14T11:59:36.292Z,6.10
2018-02-14T12:02:03.752Z,5.43
2018-02-14T12:04:31.214Z,5.93
2018-02-14T12:06:58.690Z,6.47
2018-02-14T12:09:26.912Z,5.73
2018-02-14T12:11:54.424Z,5.10
2018-02-14T12:14:21.881Z,6.57
2018-02-14T12:16:49.331Z,6.20
2018-02-14T12:19:16.802Z,5.77
2018-02-14T12:21:45.015Z,6.17
2018-02-14T12:24:12.472Z,5.70
2018-02-14T12:26:40.022Z,5.90
2018-02-14T12:29:07.555Z,6.50
2018-02-14T12:31:36.046Z,5.60
2018-02-14T12:34:04.291Z,5.30
2018-02-14T12:36:31.758Z,6.17
2018-02-14T12:38:59.417Z,5.37
2018-02-14T12:41:26.877Z,5.43
2018-02-14T12:43:54.541Z,5.83
2018-02-14T12:46:21.999Z,5.77
2018-02-14T12:48:50.203Z,5.70
2018-02-14T12:51:18.433Z,6.40
2018-02-14T12:53:45.949Z,5.40
2018-02-14T12:56:13.355Z,6.03
2018-02-14T12:58:41.115Z,6.23
2018-02-14T13:01:08.615Z,5.80
2018-02-14T13:03:36.132Z,7.10
2018-02-14T13:06:03.598Z,5.50
2018-02-14T13:08:31.072Z,5.50
2018-02-14T13:10:58.532Z,5.73
2018-02-14T13:13:25.988Z,6.90
2018-02-14T13:15:53.464Z,6.03
2018-02-14T13:18:21.688Z,6.37
2018-02-14T13:20:49.130Z,6.30
2018-02-14T13:23:16.589Z,5.77
2018-02-14T13:25:44.098Z,6.13
2018-02-14T13:28:11.567Z,5.43
2018-02-14T13:30:39.790Z,4.90
2018-02-14T13:33:07.290Z,4.80
2018-02-14T13:35:34.742Z,5.00
2018-02-14T13:38:02.236Z,4.90
2018-02-14T13:40:30.458Z,4.40
2018-02-14T13:42:57.962Z,4.20
2018-02-14T13:45:26.225Z,4.30
2018-02-14T13:47:54.452Z,3.00
2018-02-14T13:50:21.939Z,4.17
2018-02-14T13:52:49.696Z,4.80
2018-02-14T13:55:17.158Z,4.43
2018-02-14T13:57:44.617Z,4.27
2018-02-14T14:00:12.070Z,4.50
2018-02-14T14:02:39.612Z,5.07
2018-02-14T14:05:07.064Z,5.20
2018-02-14T14:07:34.518Z,4.07
2018-02-14T14:10:01.993Z,5.27
2018-02-14T14:12:29.490Z,3.80
2018-02-14T14:14:58.055Z,4.17
2018-02-14T14:17:25.512Z,3.90
2018-02-14T14:19:52.963Z,5.00
2018-02-14T14:22:20.409Z,5.40
2018-02-14T14:24:47.878Z,5.80
2018-02-14T14:27:15.330Z,5.40
2018-02-14T14:29:42.802Z,4.00
2018-02-14T14:32:10.279Z,4.50
2018-02-14T14:34:37.746Z,6.60
2018-02-14T14:37:05.977Z,5.70
2018-02-14T14:39:33.466Z,5.70
2018-02-14T14:42:00.910Z,6.77
2018-02-14T14:44:28.366Z,5.90
2018-02-14T14:46:55.839Z,7.67
2018-02-14T14:49:23.286Z,5.30
2018-02-14T14:51:50.830Z,4.80
2018-02-14T14:54:18.318Z,5.20
2018-02-14T14:56:45.807Z,5.60
2018-02-14T14:59:13.306Z,5.03
2018-02-14T15:01:40.766Z,4.60
2018-02-14T15:04:08.233Z,6.10
2018-02-14T15:06:35.728Z,7.80
2018-02-14T15:09:03.963Z,5.57
2018-02-14T15:11:31.411Z,5.37
2018-02-14T15:13:58.947Z,4.93
2018-02-14T15:16:27.154Z,5.07
2018-02-14T15:18:54.655Z,4.77
2018-02-14T15:21:22.895Z,5.33
2018-02-14T15:23:50.378Z,7.00
2018-02-14T15:26:17.863Z,8.57
2018-02-14T15:28:45.343Z,7.43
2018-02-14T15:31:13.807Z,6.83
2018-02-14T15:33:42.012Z,7.10
2018-02-14T15:36:09.471Z,6.80
2018-02-14T15:38:36.984Z,5.27
2018-02-14T15:41:05.260Z,5.37
2018-02-14T15:43:32.708Z,5.53
2018-02-14T15:46:00.179Z,6.27
2018-02-14T15:48:28.383Z,5.30
2018-02-14T15:50:55.867Z,5.50
2018-02-14T15:53:23.318Z,6.47
2018-02-14T15:55:50.765Z,6.20
2018-02-14T15:58:18.229Z,6.63
2018-02-14T16:00:45.683Z,6.10
2018-02-14T16:03:13.168Z,7.17
2018-02-14T16:05:40.731Z,7.10
2018-02-14T16:08:08.199Z,7.90
2018-02-14T16:10:35.647Z,6.30
2018-02-14T16:13:03.128Z,6.10
2018-02-14T16:15:30.814Z,7.67
2018-02-14T16:17:58.274Z,6.20
2018-02-14T16:20:25.766Z,5.97
2018-02-14T16:22:53.234Z,11.33
2018-02-14T16:25:20.743Z,8.23
2018-02-14T16:27:48.156Z,9.17
2018-02-14T16:30:15.638Z,6.70
2018-02-14T16:32:43.102Z,6.70
2018-02-14T16:35:11.358Z,6.80
2018-02-14T16:37:38.818Z,6.03
2018-02-14T16:40:06.283Z,6.17
2018-02-14T16:42:33.745Z,6.47
2018-02-14T16:45:01.187Z,6.20
2018-02-14T16:47:28.654Z,7.00
2018-02-14T16:49:56.135Z,6.67
2018-02-14T16:52:24.378Z,6.70
2018-02-14T16:54:51.847Z,7.53
2018-02-14T16:57:19.342Z,6.17
2018-02-14T16:59:46.789Z,6.63
2018-02-14T17:02:15.066Z,6.70
2018-02-14T17:04:42.810Z,7.07
2018-02-14T17:07:11.069Z,6.23
2018-02-14T17:09:38.570Z,6.20
2018-02-14T17:12:06.836Z,8.30
2018-02-14T17:14:35.076Z,15.20
2018-02-14T17:17:02.556Z,10.03
2018-02-14T17:19:30.012Z,9.23
2018-02-14T17:21:57.451Z,14.30
2018-02-14T17:24:24.986Z,8.63
2018-02-14T17:26:52.471Z,6.30
2018-02-14T17:29:19.935Z,5.63
2018-02-14T17:31:47.405Z,6.93
2018-02-14T17:34:14.850Z,6.87
2018-02-14T17:36:42.303Z,7.07
2018-02-14T17:39:09.764Z,6.50
2018-02-14T17:41:37.253Z,8.13
2018-02-14T17:44:04.694Z,6.83
2018-02-14T17:46:32.139Z,7.23
2018-02-14T17:48:59.643Z,7.47
2018-02-14T17:51:27.130Z,7.33
2018-02-14T17:53:54.729Z,7.70
2018-02-14T17:56:22.204Z,7.10
2018-02-14T17:58:50.441Z,7.97
2018-02-14T18:01:17.898Z,10.90
2018-02-14T18:03:45.482Z,14.67
2018-02-14T18:06:13.108Z,13.93
2018-02-14T18:08:40.574Z,13.40
2018-02-14T18:11:14.007Z,11.83
2018-02-14T18:13:41.513Z,11.17
2018-02-14T18:16:12.922Z,10.27
2018-02-14T18:18:40.398Z,8.77
2018-02-14T18:21:08.031Z,8.90
2018-02-14T18:23:35.503Z,12.70
2018-02-14T18:26:03.919Z,11.40
2018-02-14T18:28:31.343Z,8.53
2018-02-14T18:30:59.579Z,13.03
2018-02-14T18:33:27.088Z,11.10
2018-02-14T18:35:55.410Z,7.70
2018-02-14T18:38:22.871Z,9.93
2018-02-14T18:40:50.337Z,14.30
2018-02-14T18:43:17.803Z,17.30
2018-02-14T18:45:45.290Z,15.93
2018-02-14T18:48:13.538Z,14.47
2018-02-14T18:50:41.072Z,13.80
2018-02-14T18:53:08.528Z,15.10
2018-02-14T18:55:36.040Z,11.90
2018-02-14T18:58:03.543Z,8.23
2018-02-14T19:00:30.999Z,9.10
2018-02-14T19:02:58.453Z,8.70
2018-02-14T19:05:25.919Z,10.20
2018-02-14T19:07:53.401Z,10.90
2018-02-14T19:10:20.868Z,12.77
2018-02-14T19:12:48.336Z,14.73
2018-02-14T19:15:16.586Z,12.30
2018-02-14T19:17:44.062Z,15.47
2018-02-14T19:20:11.524Z,9.90
2018-02-14T19:22:38.987Z,8.50
2018-02-14T19:25:06.458Z,8.90
2018-02-14T19:27:33.959Z,9.40
2018-02-14T19:30:01.442Z,8.60
2018-02-14T19:32:28.874Z,9.20
2018-02-14T19:34:56.534Z,9.13
2018-02-14T19:37:23.989Z,10.03
2018-02-14T19:39:52.222Z,9.37
2018-02-14T19:42:19.691Z,9.17
2018-02-14T19:44:47.910Z,8.67
2018-02-14T19:47:15.362Z,9.00
2018-02-14T19:49:42.847Z,9.37
2018-02-14T19:52:10.401Z,9.87
2018-02-14T19:54:37.861Z,9.20
2018-02-14T19:57:05.336Z,9.23
2018-02-14T19:59:32.812Z,9.50
2018-02-14T20:02:00.350Z,9.50
2018-02-14T20:04:27.784Z,9.47
2018-02-14T20:06:55.319Z,8.30
2018-02-14T20:09:22.775Z,9.30
2018-02-14T20:11:50.250Z,9.97
2018-02-14T20:14:17.692Z,10.07
2018-02-14T20:16:45.150Z,8.63
2018-02-14T20:19:12.589Z,8.97
2018-02-14T20:21:40.824Z,8.67
2018-02-14T20:24:08.272Z,8.70
2018-02-14T20:26:35.737Z,11.90
2018-02-14T20:29:03.191Z,12.20
2018-02-14T20:31:30.688Z,9.00
2018-02-14T20:33:58.121Z,7.87
2018-02-14T20:36:25.594Z,7.50
2018-02-14T20:38:53.061Z,8.63
2018-02-14T20:41:20.517Z,8.47
2018-02-14T20:43:48.777Z,8.27
2018-02-14T20:46:16.218Z,8.80
2018-02-14T20:48:43.716Z,8.63
2018-02-14T20:51:11.222Z,9.57
2018-02-14T20:53:38.690Z,9.40
2018-02-14T20:56:06.183Z,9.60
2018-02-14T20:58:33.653Z,8.90
2018-02-14T21:01:01.922Z,10.20
2018-02-14T21:03:29.735Z,9.13
2018-02-14T21:05:57.195Z,9.10
2018-02-14T21:08:24.716Z,8.10
2018-02-14T21:10:52.952Z,8.93
2018-02-14T21:13:20.438Z,10.20
2018-02-14T21:15:47.891Z,8.50
2018-02-14T21:18:15.338Z,13.27
2018-02-14T21:20:42.886Z,9.93
2018-02-14T21:23:10.344Z,9.70
2018-02-14T21:25:37.862Z,9.13
2018-02-14T21:28:05.368Z,9.70
2018-02-14T21:30:32.854Z,8.80
2018-02-14T21:33:00.351Z,10.03
2018-02-14T21:35:27.794Z,10.17
2018-02-14T21:37:55.302Z,10.40
2018-02-14T21:40:22.849Z,10.53
2018-02-14T21:42:50.303Z,11.77
2018-02-14T21:45:17.785Z,10.10
2018-02-14T21:47:45.260Z,11.10
2018-02-14T21:50:12.745Z,10.60
2018-02-14T21:52:40.967Z,10.70
2018-02-14T21:55:08.434Z,11.60
2018-02-14T21:57:35.983Z,11.67
2018-02-14T22:00:03.455Z,11.20
2018-02-14T22:02:30.957Z,12.03
2018-02-14T22:04:59.189Z,10.87
2018-02-14T22:07:26.686Z,11.50
2018-02-14T22:09:54.932Z,12.57
2018-02-14T22:12:22.414Z,13.17
2018-02-14T22:14:50.637Z,12.70
2018-02-14T22:17:18.106Z,11.23
2018-02-14T22:19:45.574Z,12.47
2018-02-14T22:22:13.074Z,12.20
2018-02-14T22:24:41.334Z,12.10
2018-02-14T22:27:08.795Z,13.10
2018-02-14T22:29:36.258Z,12.30
2018-02-14T22:32:04.483Z,13.77
2018-02-14T22:34:31.951Z,13.87
2018-02-14T22:36:59.423Z,16.43
2018-02-14T22:39:26.863Z,16.70
2018-02-14T22:41:54.323Z,14.53
2018-02-14T22:44:21.765Z,12.50
2018-02-14T22:46:49.268Z,13.97
2018-02-14T22:49:16.737Z,12.80
2018-02-14T22:51:44.197Z,12.77
2018-02-14T22:54:12.445Z,10.80
2018-02-14T22:56:39.892Z,16.77
2018-02-14T22:59:07.430Z,12.93
2018-02-14T23:01:34.889Z,12.33
2018-02-14T23:04:02.402Z,11.50
2018-02-14T23:06:29.888Z,12.50
2018-02-14T23:08:57.400Z,13.10
2018-02-14T23:11:24.960Z,14.00
2018-02-14T23:13:52.521Z,11.67
2018-02-14T23:16:20.206Z,13.93
2018-02-14T23:18:48.468Z,11.30
2018-02-14T23:21:16.056Z,11.70
2018-02-14T23:23:44.262Z,10.83
2018-02-14T23:26:11.775Z,12.20
2018-02-14T23:28:39.246Z,11.90
2018-02-14T23:31:07.491Z,11.23
2018-02-14T23:33:34.958Z,11.20
2018-02-14T23:36:02.430Z,11.50
2018-02-14T23:38:29.889Z,12.20
2018-02-14T23:40:58.160Z,10.40
2018-02-14T23:43:25.623Z,12.70
2018-02-14T23:45:53.083Z,9.93
2018-02-14T23:48:21.318Z,10.47
2018-02-14T23:50:48.806Z,11.40
2018-02-14T23:53:16.373Z,12.37
2018-02-14T23:55:43.882Z,11.80
2018-02-14T23:58:11.352Z,11.63
